sensor_id;sensor_type;location;lat;lon;timestamp;P1;durP1;ratioP1;P2;durP2;ratioP2
55732;SDS011;41637;52.364;9.910;2023-04-28T00:01:28;7.00;;;3.30;;
55732;SDS011;41637;52.364;9.910;2023-04-28T00:03:55;7.20;;;3.20;;
55732;SDS011;41637;52.364;9.910;2023-04-28T00:06:23;6.40;;;3.40;;
55732;SDS011;41637;52.364;9.910;2023-04-28T00:08:50;5.60;;;3.00;;
55732;SDS011;41637;52.364;9.910;2023-04-28T00:11:16;8.70;;;4.50;;
55732;SDS011;41637;52.364;9.910;2023-04-28T00:13:43;9.40;;;4.60;;
55732;SDS011;41637;52.364;9.910;2023-04-28T00:16:10;7.20;;;4.30;;
55732;SDS011;41637;52.364;9.910;2023-04-28T00:18:37;7.40;;;3.60;;
55732;SDS011;41637;52.364;9.910;2023-04-28T00:21:03;5.60;;;3.10;;
55732;SDS011;41637;52.364;9.910;2023-04-28T00:23:31;7.10;;;3.30;;
55732;SDS011;41637;52.364;9.910;2023-04-28T00:25:58;7.50;;;3.20;;
55732;SDS011;41637;52.364;9.910;2023-04-28T00:28:24;6.10;;;3.20;;
55732;SDS011;41637;52.364;9.910;2023-04-28T00:31:00;6.60;;;3.30;;
55732;SDS011;41637;52.364;9.910;2023-04-28T00:33:27;7.90;;;3.40;;
55732;SDS011;41637;52.364;9.910;2023-04-28T00:35:59;6.60;;;3.30;;
55732;SDS011;41637;52.364;9.910;2023-04-28T00:38:26;6.70;;;3.00;;
55732;SDS011;41637;52.364;9.910;2023-04-28T00:40:53;5.70;;;3.10;;
55732;SDS011;41637;52.364;9.910;2023-04-28T00:43:20;6.10;;;3.30;;
55732;SDS011;41637;52.364;9.910;2023-04-28T00:45:50;6.30;;;3.40;;
55732;SDS011;41637;52.364;9.910;2023-04-28T00:48:17;7.10;;;3.50;;
55732;SDS011;41637;52.364;9.910;2023-04-28T00:50:45;5.40;;;3.00;;
55732;SDS011;41637;52.364;9.910;2023-04-28T00:53:13;7.10;;;3.20;;
55732;SDS011;41637;52.364;9.910;2023-04-28T00:55:40;6.50;;;3.20;;
55732;SDS011;41637;52.364;9.910;2023-04-28T00:58:06;7.50;;;3.30;;
55732;SDS011;41637;52.364;9.910;2023-04-28T01:00:34;5.90;;;3.10;;
55732;SDS011;41637;52.364;9.910;2023-04-28T01:03:01;5.10;;;3.10;;
55732;SDS011;41637;52.364;9.910;2023-04-28T01:05:28;6.80;;;3.40;;
55732;SDS011;41637;52.364;9.910;2023-04-28T01:07:57;4.70;;;3.00;;
55732;SDS011;41637;52.364;9.910;2023-04-28T01:10:23;5.70;;;3.20;;
55732;SDS011;41637;52.364;9.910;2023-04-28T01:12:50;6.00;;;3.50;;
55732;SDS011;41637;52.364;9.910;2023-04-28T01:15:17;6.80;;;3.30;;
55732;SDS011;41637;52.364;9.910;2023-04-28T01:17:46;5.70;;;3.30;;
55732;SDS011;41637;52.364;9.910;2023-04-28T01:20:13;6.20;;;3.50;;
55732;SDS011;41637;52.364;9.910;2023-04-28T01:22:40;6.40;;;3.60;;
55732;SDS011;41637;52.364;9.910;2023-04-28T01:25:07;5.50;;;3.10;;
55732;SDS011;41637;52.364;9.910;2023-04-28T01:27:34;9.00;;;3.50;;
55732;SDS011;41637;52.364;9.910;2023-04-28T01:30:00;6.40;;;3.20;;
55732;SDS011;41637;52.364;9.910;2023-04-28T01:32:27;6.40;;;3.40;;
55732;SDS011;41637;52.364;9.910;2023-04-28T01:34:54;6.70;;;3.10;;
55732;SDS011;41637;52.364;9.910;2023-04-28T01:37:21;6.10;;;3.70;;
55732;SDS011;41637;52.364;9.910;2023-04-28T01:39:49;7.60;;;3.60;;
55732;SDS011;41637;52.364;9.910;2023-04-28T01:42:15;7.00;;;3.60;;
55732;SDS011;41637;52.364;9.910;2023-04-28T01:44:42;6.40;;;3.70;;
55732;SDS011;41637;52.364;9.910;2023-04-28T01:47:09;8.20;;;3.70;;
55732;SDS011;41637;52.364;9.910;2023-04-28T01:49:35;6.80;;;3.80;;
55732;SDS011;41637;52.364;9.910;2023-04-28T01:52:02;6.70;;;3.90;;
55732;SDS011;41637;52.364;9.910;2023-04-28T01:54:29;6.90;;;3.30;;
55732;SDS011;41637;52.364;9.910;2023-04-28T01:56:55;8.10;;;3.50;;
55732;SDS011;41637;52.364;9.910;2023-04-28T01:59:22;6.60;;;3.40;;
55732;SDS011;41637;52.364;9.910;2023-04-28T02:01:49;5.80;;;3.50;;
55732;SDS011;41637;52.364;9.910;2023-04-28T02:04:16;5.80;;;3.50;;
55732;SDS011;41637;52.364;9.910;2023-04-28T02:06:43;6.20;;;3.30;;
55732;SDS011;41637;52.364;9.910;2023-04-28T02:09:10;6.10;;;3.30;;
55732;SDS011;41637;52.364;9.910;2023-04-28T02:11:36;5.90;;;3.40;;
55732;SDS011;41637;52.364;9.910;2023-04-28T02:14:03;5.70;;;3.20;;
55732;SDS011;41637;52.364;9.910;2023-04-28T02:16:30;6.40;;;3.30;;
55732;SDS011;41637;52.364;9.910;2023-04-28T02:18:56;6.40;;;3.40;;
55732;SDS011;41637;52.364;9.910;2023-04-28T02:21:23;7.80;;;3.80;;
55732;SDS011;41637;52.364;9.910;2023-04-28T02:23:51;6.70;;;3.60;;
55732;SDS011;41637;52.364;9.910;2023-04-28T02:26:18;7.30;;;3.80;;
55732;SDS011;41637;52.364;9.910;2023-04-28T02:28:44;6.70;;;3.60;;
55732;SDS011;41637;52.364;9.910;2023-04-28T02:31:11;6.80;;;3.40;;
55732;SDS011;41637;52.364;9.910;2023-04-28T02:33:39;6.80;;;3.70;;
55732;SDS011;41637;52.364;9.910;2023-04-28T02:36:07;5.40;;;3.20;;
55732;SDS011;41637;52.364;9.910;2023-04-28T02:38:35;5.30;;;3.20;;
55732;SDS011;41637;52.364;9.910;2023-04-28T02:41:03;6.70;;;3.50;;
55732;SDS011;41637;52.364;9.910;2023-04-28T02:43:31;7.30;;;3.80;;
55732;SDS011;41637;52.364;9.910;2023-04-28T02:45:58;7.40;;;3.60;;
55732;SDS011;41637;52.364;9.910;2023-04-28T02:48:25;6.20;;;3.60;;
55732;SDS011;41637;52.364;9.910;2023-04-28T02:50:52;6.90;;;3.60;;
55732;SDS011;41637;52.364;9.910;2023-04-28T02:53:19;5.80;;;3.60;;
55732;SDS011;41637;52.364;9.910;2023-04-28T02:55:46;7.70;;;3.40;;
55732;SDS011;41637;52.364;9.910;2023-04-28T02:58:13;5.90;;;4.00;;
55732;SDS011;41637;52.364;9.910;2023-04-28T03:00:40;7.10;;;3.60;;
55732;SDS011;41637;52.364;9.910;2023-04-28T03:03:06;8.00;;;3.70;;
55732;SDS011;41637;52.364;9.910;2023-04-28T03:05:33;6.80;;;3.80;;
55732;SDS011;41637;52.364;9.910;2023-04-28T03:07:59;6.60;;;3.70;;
55732;SDS011;41637;52.364;9.910;2023-04-28T03:10:26;5.50;;;3.40;;
55732;SDS011;41637;52.364;9.910;2023-04-28T03:12:53;5.70;;;3.40;;
55732;SDS011;41637;52.364;9.910;2023-04-28T03:15:19;7.90;;;3.40;;
55732;SDS011;41637;52.364;9.910;2023-04-28T03:17:46;5.40;;;3.40;;
55732;SDS011;41637;52.364;9.910;2023-04-28T03:20:13;8.10;;;3.70;;
55732;SDS011;41637;52.364;9.910;2023-04-28T03:22:40;5.60;;;3.30;;
55732;SDS011;41637;52.364;9.910;2023-04-28T03:25:06;6.40;;;3.10;;
55732;SDS011;41637;52.364;9.910;2023-04-28T03:27:33;6.20;;;3.80;;
55732;SDS011;41637;52.364;9.910;2023-04-28T03:30:00;6.00;;;3.80;;
55732;SDS011;41637;52.364;9.910;2023-04-28T03:32:27;5.70;;;3.60;;
55732;SDS011;41637;52.364;9.910;2023-04-28T03:34:54;9.80;;;3.30;;
55732;SDS011;41637;52.364;9.910;2023-04-28T03:37:20;6.20;;;3.30;;
55732;SDS011;41637;52.364;9.910;2023-04-28T03:39:47;5.30;;;3.40;;
55732;SDS011;41637;52.364;9.910;2023-04-28T03:42:14;5.60;;;3.00;;
55732;SDS011;41637;52.364;9.910;2023-04-28T03:44:41;7.60;;;3.90;;
55732;SDS011;41637;52.364;9.910;2023-04-28T03:47:08;7.80;;;3.50;;
55732;SDS011;41637;52.364;9.910;2023-04-28T03:49:35;5.30;;;3.40;;
55732;SDS011;41637;52.364;9.910;2023-04-28T03:52:02;6.90;;;3.60;;
55732;SDS011;41637;52.364;9.910;2023-04-28T03:54:29;8.60;;;3.40;;
55732;SDS011;41637;52.364;9.910;2023-04-28T03:56:56;7.40;;;3.60;;
55732;SDS011;41637;52.364;9.910;2023-04-28T03:59:23;7.60;;;3.30;;
55732;SDS011;41637;52.364;9.910;2023-04-28T04:01:49;8.40;;;3.30;;
55732;SDS011;41637;52.364;9.910;2023-04-28T04:04:16;7.40;;;3.70;;
55732;SDS011;41637;52.364;9.910;2023-04-28T04:06:43;6.60;;;3.30;;
55732;SDS011;41637;52.364;9.910;2023-04-28T04:09:10;5.50;;;3.40;;
55732;SDS011;41637;52.364;9.910;2023-04-28T04:11:37;7.30;;;3.50;;
55732;SDS011;41637;52.364;9.910;2023-04-28T04:14:03;7.60;;;3.90;;
55732;SDS011;41637;52.364;9.910;2023-04-28T04:16:31;5.70;;;3.60;;
55732;SDS011;41637;52.364;9.910;2023-04-28T04:18:57;5.20;;;3.70;;
55732;SDS011;41637;52.364;9.910;2023-04-28T04:21:24;9.40;;;4.10;;
55732;SDS011;41637;52.364;9.910;2023-04-28T04:23:51;7.30;;;3.70;;
55732;SDS011;41637;52.364;9.910;2023-04-28T04:26:17;8.70;;;3.80;;
55732;SDS011;41637;52.364;9.910;2023-04-28T04:28:44;6.00;;;3.50;;
55732;SDS011;41637;52.364;9.910;2023-04-28T04:31:11;6.60;;;3.70;;
55732;SDS011;41637;52.364;9.910;2023-04-28T04:33:37;6.20;;;3.70;;
55732;SDS011;41637;52.364;9.910;2023-04-28T04:36:04;9.00;;;4.70;;
55732;SDS011;41637;52.364;9.910;2023-04-28T04:38:31;9.00;;;5.50;;
55732;SDS011;41637;52.364;9.910;2023-04-28T04:40:58;8.70;;;4.40;;
55732;SDS011;41637;52.364;9.910;2023-04-28T04:43:25;8.90;;;4.40;;
55732;SDS011;41637;52.364;9.910;2023-04-28T04:45:52;8.70;;;4.20;;
55732;SDS011;41637;52.364;9.910;2023-04-28T04:48:19;7.90;;;3.90;;
55732;SDS011;41637;52.364;9.910;2023-04-28T04:50:46;6.90;;;3.60;;
55732;SDS011;41637;52.364;9.910;2023-04-28T04:53:12;9.20;;;4.20;;
55732;SDS011;41637;52.364;9.910;2023-04-28T04:55:41;6.20;;;4.10;;
55732;SDS011;41637;52.364;9.910;2023-04-28T04:58:08;6.70;;;3.60;;
55732;SDS011;41637;52.364;9.910;2023-04-28T05:00:35;6.10;;;3.70;;
55732;SDS011;41637;52.364;9.910;2023-04-28T05:03:03;7.10;;;3.70;;
55732;SDS011;41637;52.364;9.910;2023-04-28T05:05:31;6.20;;;3.50;;
55732;SDS011;41637;52.364;9.910;2023-04-28T05:07:58;7.70;;;4.20;;
55732;SDS011;41637;52.364;9.910;2023-04-28T05:10:25;7.20;;;3.80;;
55732;SDS011;41637;52.364;9.910;2023-04-28T05:12:52;7.20;;;3.50;;
55732;SDS011;41637;52.364;9.910;2023-04-28T05:15:19;6.40;;;3.60;;
55732;SDS011;41637;52.364;9.910;2023-04-28T05:17:45;6.70;;;3.90;;
55732;SDS011;41637;52.364;9.910;2023-04-28T05:20:13;10.00;;;4.00;;
55732;SDS011;41637;52.364;9.910;2023-04-28T05:22:39;7.30;;;4.10;;
55732;SDS011;41637;52.364;9.910;2023-04-28T05:25:06;8.10;;;4.20;;
55732;SDS011;41637;52.364;9.910;2023-04-28T05:27:33;8.70;;;3.90;;
55732;SDS011;41637;52.364;9.910;2023-04-28T05:30:03;7.30;;;3.70;;
55732;SDS011;41637;52.364;9.910;2023-04-28T05:32:30;6.50;;;3.80;;
55732;SDS011;41637;52.364;9.910;2023-04-28T05:34:57;6.60;;;3.70;;
55732;SDS011;41637;52.364;9.910;2023-04-28T05:37:23;7.50;;;3.70;;
55732;SDS011;41637;52.364;9.910;2023-04-28T05:39:50;9.00;;;4.10;;
55732;SDS011;41637;52.364;9.910;2023-04-28T05:42:17;7.90;;;3.80;;
55732;SDS011;41637;52.364;9.910;2023-04-28T05:44:44;6.70;;;3.90;;
55732;SDS011;41637;52.364;9.910;2023-04-28T05:47:10;6.50;;;4.00;;
55732;SDS011;41637;52.364;9.910;2023-04-28T05:49:37;6.60;;;4.00;;
55732;SDS011;41637;52.364;9.910;2023-04-28T05:52:04;7.00;;;3.90;;
55732;SDS011;41637;52.364;9.910;2023-04-28T05:54:30;10.30;;;4.40;;
55732;SDS011;41637;52.364;9.910;2023-04-28T05:56:59;8.50;;;4.20;;
55732;SDS011;41637;52.364;9.910;2023-04-28T05:59:27;7.00;;;4.10;;
55732;SDS011;41637;52.364;9.910;2023-04-28T06:01:55;6.90;;;3.80;;
55732;SDS011;41637;52.364;9.910;2023-04-28T06:04:22;9.00;;;4.30;;
55732;SDS011;41637;52.364;9.910;2023-04-28T06:06:50;8.50;;;4.20;;
55732;SDS011;41637;52.364;9.910;2023-04-28T06:09:17;8.20;;;4.10;;
55732;SDS011;41637;52.364;9.910;2023-04-28T06:11:45;6.70;;;3.50;;
55732;SDS011;41637;52.364;9.910;2023-04-28T06:14:11;6.20;;;4.00;;
55732;SDS011;41637;52.364;9.910;2023-04-28T06:16:38;10.40;;;4.10;;
55732;SDS011;41637;52.364;9.910;2023-04-28T06:19:05;7.60;;;4.20;;
55732;SDS011;41637;52.364;9.910;2023-04-28T06:21:32;8.80;;;4.50;;
55732;SDS011;41637;52.364;9.910;2023-04-28T06:23:58;8.30;;;4.20;;
55732;SDS011;41637;52.364;9.910;2023-04-28T06:26:27;8.60;;;4.40;;
55732;SDS011;41637;52.364;9.910;2023-04-28T06:28:53;7.90;;;4.70;;
55732;SDS011;41637;52.364;9.910;2023-04-28T06:31:20;9.00;;;4.50;;
55732;SDS011;41637;52.364;9.910;2023-04-28T06:33:47;8.40;;;4.60;;
55732;SDS011;41637;52.364;9.910;2023-04-28T06:36:14;6.20;;;4.30;;
55732;SDS011;41637;52.364;9.910;2023-04-28T06:38:43;6.70;;;4.50;;
55732;SDS011;41637;52.364;9.910;2023-04-28T06:41:10;11.20;;;5.40;;
55732;SDS011;41637;52.364;9.910;2023-04-28T06:43:38;8.90;;;4.90;;
55732;SDS011;41637;52.364;9.910;2023-04-28T06:46:04;8.40;;;4.90;;
55732;SDS011;41637;52.364;9.910;2023-04-28T06:48:31;7.80;;;5.20;;
55732;SDS011;41637;52.364;9.910;2023-04-28T06:50:58;7.90;;;4.50;;
55732;SDS011;41637;52.364;9.910;2023-04-28T06:53:24;11.20;;;5.20;;
55732;SDS011;41637;52.364;9.910;2023-04-28T06:55:52;10.10;;;5.20;;
55732;SDS011;41637;52.364;9.910;2023-04-28T06:58:19;10.30;;;5.00;;
55732;SDS011;41637;52.364;9.910;2023-04-28T07:00:46;9.50;;;5.00;;
55732;SDS011;41637;52.364;9.910;2023-04-28T07:03:12;8.90;;;5.40;;
55732;SDS011;41637;52.364;9.910;2023-04-28T07:05:39;10.70;;;5.50;;
55732;SDS011;41637;52.364;9.910;2023-04-28T07:08:06;8.10;;;5.30;;
55732;SDS011;41637;52.364;9.910;2023-04-28T07:10:33;8.60;;;5.40;;
55732;SDS011;41637;52.364;9.910;2023-04-28T07:13:00;8.20;;;4.70;;
55732;SDS011;41637;52.364;9.910;2023-04-28T07:15:27;10.20;;;5.50;;
55732;SDS011;41637;52.364;9.910;2023-04-28T07:17:54;11.10;;;5.90;;
55732;SDS011;41637;52.364;9.910;2023-04-28T07:20:20;9.90;;;5.30;;
55732;SDS011;41637;52.364;9.910;2023-04-28T07:22:47;9.10;;;5.70;;
55732;SDS011;41637;52.364;9.910;2023-04-28T07:25:13;9.80;;;6.00;;
55732;SDS011;41637;52.364;9.910;2023-04-28T07:27:40;10.30;;;5.80;;
55732;SDS011;41637;52.364;9.910;2023-04-28T07:30:07;9.30;;;5.60;;
55732;SDS011;41637;52.364;9.910;2023-04-28T07:32:51;9.30;;;5.70;;
55732;SDS011;41637;52.364;9.910;2023-04-28T07:35:18;8.80;;;5.80;;
55732;SDS011;41637;52.364;9.910;2023-04-28T07:37:44;9.20;;;5.70;;
55732;SDS011;41637;52.364;9.910;2023-04-28T07:40:11;10.00;;;6.20;;
55732;SDS011;41637;52.364;9.910;2023-04-28T07:42:38;8.20;;;5.70;;
55732;SDS011;41637;52.364;9.910;2023-04-28T07:45:05;10.10;;;6.40;;
55732;SDS011;41637;52.364;9.910;2023-04-28T07:47:32;9.30;;;6.10;;
55732;SDS011;41637;52.364;9.910;2023-04-28T07:49:59;10.50;;;6.60;;
55732;SDS011;41637;52.364;9.910;2023-04-28T07:52:31;11.20;;;6.10;;
55732;SDS011;41637;52.364;9.910;2023-04-28T07:54:59;9.40;;;6.70;;
55732;SDS011;41637;52.364;9.910;2023-04-28T07:57:25;8.80;;;6.20;;
55732;SDS011;41637;52.364;9.910;2023-04-28T07:59:52;9.60;;;6.40;;
55732;SDS011;41637;52.364;9.910;2023-04-28T08:02:18;10.90;;;6.50;;
55732;SDS011;41637;52.364;9.910;2023-04-28T08:04:46;9.30;;;6.30;;
55732;SDS011;41637;52.364;9.910;2023-04-28T08:07:13;12.60;;;7.20;;
55732;SDS011;41637;52.364;9.910;2023-04-28T08:09:40;10.90;;;7.00;;
55732;SDS011;41637;52.364;9.910;2023-04-28T08:12:09;11.00;;;6.50;;
55732;SDS011;41637;52.364;9.910;2023-04-28T08:14:36;12.60;;;6.80;;
55732;SDS011;41637;52.364;9.910;2023-04-28T08:17:03;11.80;;;6.70;;
55732;SDS011;41637;52.364;9.910;2023-04-28T08:19:29;10.70;;;6.80;;
55732;SDS011;41637;52.364;9.910;2023-04-28T08:21:56;10.70;;;6.70;;
55732;SDS011;41637;52.364;9.910;2023-04-28T08:24:23;10.50;;;6.60;;
55732;SDS011;41637;52.364;9.910;2023-04-28T08:26:49;11.00;;;6.50;;
55732;SDS011;41637;52.364;9.910;2023-04-28T08:29:17;11.00;;;6.60;;
55732;SDS011;41637;52.364;9.910;2023-04-28T08:31:43;10.70;;;7.20;;
55732;SDS011;41637;52.364;9.910;2023-04-28T08:34:11;11.00;;;6.80;;
55732;SDS011;41637;52.364;9.910;2023-04-28T08:36:41;11.00;;;6.60;;
55732;SDS011;41637;52.364;9.910;2023-04-28T08:39:08;12.70;;;6.70;;
55732;SDS011;41637;52.364;9.910;2023-04-28T08:41:38;10.60;;;6.60;;
55732;SDS011;41637;52.364;9.910;2023-04-28T08:44:07;11.20;;;7.00;;
55732;SDS011;41637;52.364;9.910;2023-04-28T08:46:34;11.70;;;6.80;;
55732;SDS011;41637;52.364;9.910;2023-04-28T08:49:01;12.60;;;6.80;;
55732;SDS011;41637;52.364;9.910;2023-04-28T08:51:36;12.20;;;6.90;;
55732;SDS011;41637;52.364;9.910;2023-04-28T08:54:09;11.30;;;7.20;;
55732;SDS011;41637;52.364;9.910;2023-04-28T08:56:51;11.10;;;7.20;;
55732;SDS011;41637;52.364;9.910;2023-04-28T08:59:19;13.20;;;6.60;;
55732;SDS011;41637;52.364;9.910;2023-04-28T09:01:49;11.70;;;6.50;;
55732;SDS011;41637;52.364;9.910;2023-04-28T09:04:17;11.20;;;6.50;;
55732;SDS011;41637;52.364;9.910;2023-04-28T09:06:45;10.40;;;6.40;;
55732;SDS011;41637;52.364;9.910;2023-04-28T09:14:25;11.20;;;6.70;;
55732;SDS011;41637;52.364;9.910;2023-04-28T09:16:53;9.70;;;6.10;;
55732;SDS011;41637;52.364;9.910;2023-04-28T09:19:20;10.80;;;6.60;;
55732;SDS011;41637;52.364;9.910;2023-04-28T09:21:54;8.10;;;5.70;;
55732;SDS011;41637;52.364;9.910;2023-04-28T09:24:29;12.50;;;6.60;;
55732;SDS011;41637;52.364;9.910;2023-04-28T09:26:58;9.80;;;6.10;;
55732;SDS011;41637;52.364;9.910;2023-04-28T09:29:30;11.60;;;6.20;;
55732;SDS011;41637;52.364;9.910;2023-04-28T09:32:16;12.40;;;5.70;;
55732;SDS011;41637;52.364;9.910;2023-04-28T09:34:49;9.80;;;5.90;;
55732;SDS011;41637;52.364;9.910;2023-04-28T09:37:17;10.00;;;6.40;;
55732;SDS011;41637;52.364;9.910;2023-04-28T09:39:46;10.40;;;6.00;;
55732;SDS011;41637;52.364;9.910;2023-04-28T09:45:13;12.80;;;6.80;;
55732;SDS011;41637;52.364;9.910;2023-04-28T09:47:42;10.40;;;6.00;;
55732;SDS011;41637;52.364;9.910;2023-04-28T09:50:11;10.10;;;6.00;;
55732;SDS011;41637;52.364;9.910;2023-04-28T09:52:41;9.70;;;5.80;;
55732;SDS011;41637;52.364;9.910;2023-04-28T09:55:10;9.20;;;5.10;;
55732;SDS011;41637;52.364;9.910;2023-04-28T09:57:38;9.10;;;5.20;;
55732;SDS011;41637;52.364;9.910;2023-04-28T10:00:05;11.00;;;5.80;;
55732;SDS011;41637;52.364;9.910;2023-04-28T10:02:34;9.90;;;5.90;;
55732;SDS011;41637;52.364;9.910;2023-04-28T10:05:05;9.40;;;5.60;;
55732;SDS011;41637;52.364;9.910;2023-04-28T10:07:35;10.30;;;5.90;;
55732;SDS011;41637;52.364;9.910;2023-04-28T10:10:02;9.80;;;5.70;;
55732;SDS011;41637;52.364;9.910;2023-04-28T10:12:30;9.40;;;6.00;;
55732;SDS011;41637;52.364;9.910;2023-04-28T10:14:57;12.70;;;6.20;;
55732;SDS011;41637;52.364;9.910;2023-04-28T10:17:25;12.00;;;6.10;;
55732;SDS011;41637;52.364;9.910;2023-04-28T10:19:54;10.00;;;6.20;;
55732;SDS011;41637;52.364;9.910;2023-04-28T10:25:23;10.40;;;6.50;;
55732;SDS011;41637;52.364;9.910;2023-04-28T10:27:51;10.50;;;5.90;;
55732;SDS011;41637;52.364;9.910;2023-04-28T10:30:23;11.10;;;6.10;;
55732;SDS011;41637;52.364;9.910;2023-04-28T10:40:37;10.60;;;6.30;;
55732;SDS011;41637;52.364;9.910;2023-04-28T10:46:00;9.80;;;6.70;;
55732;SDS011;41637;52.364;9.910;2023-04-28T10:56:08;10.70;;;6.80;;
55732;SDS011;41637;52.364;9.910;2023-04-28T10:58:35;14.60;;;7.80;;
55732;SDS011;41637;52.364;9.910;2023-04-28T11:03:59;16.80;;;7.80;;
55732;SDS011;41637;52.364;9.910;2023-04-28T11:06:40;12.90;;;6.50;;
55732;SDS011;41637;52.364;9.910;2023-04-28T11:11:37;10.60;;;6.20;;
55732;SDS011;41637;52.364;9.910;2023-04-28T11:19:29;10.60;;;6.10;;
55732;SDS011;41637;52.364;9.910;2023-04-28T11:22:00;9.80;;;6.20;;
55732;SDS011;41637;52.364;9.910;2023-04-28T11:24:28;9.10;;;6.20;;
55732;SDS011;41637;52.364;9.910;2023-04-28T11:26:56;11.90;;;6.80;;
55732;SDS011;41637;52.364;9.910;2023-04-28T11:29:37;9.70;;;6.50;;
55732;SDS011;41637;52.364;9.910;2023-04-28T11:32:07;10.00;;;6.80;;
55732;SDS011;41637;52.364;9.910;2023-04-28T11:34:35;9.00;;;6.50;;
55732;SDS011;41637;52.364;9.910;2023-04-28T11:37:02;8.80;;;6.40;;
55732;SDS011;41637;52.364;9.910;2023-04-28T11:39:33;9.80;;;6.40;;
55732;SDS011;41637;52.364;9.910;2023-04-28T11:42:08;12.40;;;6.60;;
55732;SDS011;41637;52.364;9.910;2023-04-28T11:44:35;8.90;;;6.70;;
55732;SDS011;41637;52.364;9.910;2023-04-28T11:47:03;9.30;;;6.70;;
55732;SDS011;41637;52.364;9.910;2023-04-28T11:49:40;10.20;;;6.10;;
55732;SDS011;41637;52.364;9.910;2023-04-28T11:52:11;10.40;;;6.10;;
55732;SDS011;41637;52.364;9.910;2023-04-28T11:54:38;8.40;;;6.30;;
55732;SDS011;41637;52.364;9.910;2023-04-28T11:57:18;11.60;;;6.10;;
55732;SDS011;41637;52.364;9.910;2023-04-28T11:59:46;10.20;;;6.40;;
55732;SDS011;41637;52.364;9.910;2023-04-28T12:21:03;9.70;;;6.50;;
55732;SDS011;41637;52.364;9.910;2023-04-28T12:23:31;11.50;;;6.80;;
55732;SDS011;41637;52.364;9.910;2023-04-28T12:25:59;10.10;;;6.90;;
55732;SDS011;41637;52.364;9.910;2023-04-28T12:28:39;9.40;;;6.40;;
55732;SDS011;41637;52.364;9.910;2023-04-28T12:31:09;10.50;;;6.50;;
55732;SDS011;41637;52.364;9.910;2023-04-28T12:33:36;9.40;;;6.70;;
55732;SDS011;41637;52.364;9.910;2023-04-28T12:36:03;12.70;;;7.00;;
55732;SDS011;41637;52.364;9.910;2023-04-28T12:38:33;8.80;;;6.70;;
55732;SDS011;41637;52.364;9.910;2023-04-28T12:41:00;9.60;;;6.60;;
55732;SDS011;41637;52.364;9.910;2023-04-28T12:43:27;13.30;;;7.30;;
55732;SDS011;41637;52.364;9.910;2023-04-28T12:45:54;11.30;;;7.20;;
55732;SDS011;41637;52.364;9.910;2023-04-28T12:48:22;10.70;;;7.50;;
55732;SDS011;41637;52.364;9.910;2023-04-28T12:50:52;10.30;;;7.40;;
55732;SDS011;41637;52.364;9.910;2023-04-28T12:53:19;9.40;;;6.80;;
55732;SDS011;41637;52.364;9.910;2023-04-28T12:55:45;10.80;;;7.30;;
55732;SDS011;41637;52.364;9.910;2023-04-28T12:58:12;10.00;;;7.10;;
55732;SDS011;41637;52.364;9.910;2023-04-28T13:00:38;11.00;;;7.70;;
55732;SDS011;41637;52.364;9.910;2023-04-28T13:03:06;10.50;;;7.30;;
55732;SDS011;41637;52.364;9.910;2023-04-28T13:05:34;13.20;;;7.70;;
55732;SDS011;41637;52.364;9.910;2023-04-28T13:08:01;9.20;;;7.00;;
55732;SDS011;41637;52.364;9.910;2023-04-28T13:10:27;11.20;;;7.20;;
55732;SDS011;41637;52.364;9.910;2023-04-28T13:12:54;9.30;;;7.70;;
55732;SDS011;41637;52.364;9.910;2023-04-28T13:15:21;11.10;;;8.10;;
55732;SDS011;41637;52.364;9.910;2023-04-28T13:17:48;9.40;;;7.70;;
55732;SDS011;41637;52.364;9.910;2023-04-28T13:20:15;10.80;;;7.00;;
55732;SDS011;41637;52.364;9.910;2023-04-28T13:22:42;11.00;;;7.90;;
55732;SDS011;41637;52.364;9.910;2023-04-28T13:25:08;11.20;;;7.50;;
55732;SDS011;41637;52.364;9.910;2023-04-28T13:27:35;10.10;;;7.60;;
55732;SDS011;41637;52.364;9.910;2023-04-28T13:30:03;10.70;;;8.00;;
55732;SDS011;41637;52.364;9.910;2023-04-28T13:32:30;12.10;;;8.70;;
55732;SDS011;41637;52.364;9.910;2023-04-28T13:34:57;10.00;;;7.90;;
55732;SDS011;41637;52.364;9.910;2023-04-28T13:37:24;12.60;;;8.70;;
55732;SDS011;41637;52.364;9.910;2023-04-28T13:39:51;12.00;;;8.20;;
55732;SDS011;41637;52.364;9.910;2023-04-28T13:42:18;10.00;;;8.20;;
55732;SDS011;41637;52.364;9.910;2023-04-28T13:44:45;10.80;;;8.20;;
55732;SDS011;41637;52.364;9.910;2023-04-28T13:47:14;13.00;;;8.10;;
55732;SDS011;41637;52.364;9.910;2023-04-28T13:49:41;12.40;;;8.30;;
55732;SDS011;41637;52.364;9.910;2023-04-28T13:52:08;12.30;;;8.20;;
55732;SDS011;41637;52.364;9.910;2023-04-28T13:54:35;11.90;;;8.20;;
55732;SDS011;41637;52.364;9.910;2023-04-28T13:57:01;11.10;;;8.00;;
55732;SDS011;41637;52.364;9.910;2023-04-28T13:59:28;12.00;;;8.40;;
55732;SDS011;41637;52.364;9.910;2023-04-28T14:01:56;8.90;;;7.00;;
55732;SDS011;41637;52.364;9.910;2023-04-28T14:04:23;10.60;;;8.40;;
55732;SDS011;41637;52.364;9.910;2023-04-28T14:06:51;10.10;;;8.10;;
55732;SDS011;41637;52.364;9.910;2023-04-28T14:09:17;11.90;;;8.10;;
55732;SDS011;41637;52.364;9.910;2023-04-28T14:11:44;11.40;;;8.40;;
55732;SDS011;41637;52.364;9.910;2023-04-28T14:14:11;12.50;;;8.80;;
55732;SDS011;41637;52.364;9.910;2023-04-28T14:16:38;11.00;;;8.20;;
55732;SDS011;41637;52.364;9.910;2023-04-28T14:19:04;14.70;;;8.30;;
55732;SDS011;41637;52.364;9.910;2023-04-28T14:21:32;13.10;;;8.50;;
55732;SDS011;41637;52.364;9.910;2023-04-28T14:23:59;14.40;;;8.70;;
55732;SDS011;41637;52.364;9.910;2023-04-28T14:26:26;13.60;;;8.10;;
55732;SDS011;41637;52.364;9.910;2023-04-28T14:28:53;14.70;;;9.10;;
55732;SDS011;41637;52.364;9.910;2023-04-28T14:31:20;13.30;;;8.00;;
55732;SDS011;41637;52.364;9.910;2023-04-28T14:33:47;13.50;;;9.00;;
55732;SDS011;41637;52.364;9.910;2023-04-28T14:36:14;11.20;;;7.50;;
55732;SDS011;41637;52.364;9.910;2023-04-28T14:38:41;12.40;;;7.80;;
55732;SDS011;41637;52.364;9.910;2023-04-28T14:41:07;11.80;;;8.50;;
55732;SDS011;41637;52.364;9.910;2023-04-28T14:43:34;12.90;;;8.10;;
55732;SDS011;41637;52.364;9.910;2023-04-28T14:46:01;12.80;;;8.30;;
55732;SDS011;41637;52.364;9.910;2023-04-28T14:48:28;13.10;;;7.90;;
55732;SDS011;41637;52.364;9.910;2023-04-28T14:50:54;16.10;;;8.80;;
55732;SDS011;41637;52.364;9.910;2023-04-28T14:53:22;12.80;;;8.10;;
55732;SDS011;41637;52.364;9.910;2023-04-28T14:55:49;13.50;;;8.60;;
55732;SDS011;41637;52.364;9.910;2023-04-28T14:58:16;15.90;;;9.00;;
55732;SDS011;41637;52.364;9.910;2023-04-28T15:00:43;11.10;;;8.40;;
55732;SDS011;41637;52.364;9.910;2023-04-28T15:03:10;15.00;;;8.50;;
55732;SDS011;41637;52.364;9.910;2023-04-28T15:05:36;13.60;;;9.20;;
55732;SDS011;41637;52.364;9.910;2023-04-28T15:08:03;11.50;;;8.40;;
55732;SDS011;41637;52.364;9.910;2023-04-28T15:10:35;13.30;;;9.00;;
55732;SDS011;41637;52.364;9.910;2023-04-28T15:13:03;11.30;;;8.30;;
55732;SDS011;41637;52.364;9.910;2023-04-28T15:15:31;12.90;;;9.30;;
55732;SDS011;41637;52.364;9.910;2023-04-28T15:17:58;14.50;;;9.10;;
55732;SDS011;41637;52.364;9.910;2023-04-28T15:20:27;12.70;;;9.20;;
55732;SDS011;41637;52.364;9.910;2023-04-28T15:22:55;12.00;;;8.50;;
55732;SDS011;41637;52.364;9.910;2023-04-28T15:25:22;11.00;;;8.80;;
55732;SDS011;41637;52.364;9.910;2023-04-28T15:27:49;13.10;;;8.90;;
55732;SDS011;41637;52.364;9.910;2023-04-28T15:30:15;11.60;;;9.00;;
55732;SDS011;41637;52.364;9.910;2023-04-28T15:32:42;14.70;;;8.80;;
55732;SDS011;41637;52.364;9.910;2023-04-28T15:35:10;13.10;;;9.40;;
55732;SDS011;41637;52.364;9.910;2023-04-28T15:40:04;13.10;;;8.90;;
55732;SDS011;41637;52.364;9.910;2023-04-28T15:42:31;13.30;;;9.20;;
55732;SDS011;41637;52.364;9.910;2023-04-28T15:44:58;10.80;;;8.10;;
55732;SDS011;41637;52.364;9.910;2023-04-28T15:47:25;12.70;;;8.40;;